createdAt,value
2023-09-06T00:01:26.686Z,16.99
2023-09-06T00:03:57.239Z,16.98
2023-09-06T00:06:29.427Z,16.97
2023-09-06T00:08:58.379Z,16.96
2023-09-06T00:11:29.284Z,16.95
2023-09-06T00:13:58.778Z,16.95
2023-09-06T00:16:28.385Z,16.86
2023-09-06T00:19:00.817Z,16.85
2023-09-06T00:21:34.108Z,16.82
2023-09-06T00:24:05.086Z,16.83
2023-09-06T00:26:35.556Z,16.79
2023-09-06T00:29:08.120Z,16.76
2023-09-06T00:31:38.474Z,16.65
2023-09-06T00:34:10.048Z,16.60
2023-09-06T00:36:41.374Z,16.65
2023-09-06T00:39:12.177Z,16.60
2023-09-06T00:41:43.777Z,16.58
2023-09-06T00:44:13.872Z,16.59
2023-09-06T00:46:43.535Z,16.65
2023-09-06T00:49:13.904Z,16.63
2023-09-06T00:51:45.361Z,16.57
2023-09-06T00:54:16.241Z,16.60
2023-09-06T00:56:45.929Z,16.54
2023-09-06T00:59:17.860Z,16.48
2023-09-06T01:01:48.231Z,16.48
2023-09-06T01:04:18.355Z,16.33
2023-09-06T01:06:56.742Z,16.40
2023-09-06T01:09:26.838Z,16.41
2023-09-06T01:11:56.755Z,16.39
2023-09-06T01:14:26.881Z,16.30
2023-09-06T01:16:57.773Z,16.21
2023-09-06T01:19:34.988Z,16.10
2023-09-06T01:22:19.929Z,16.16
2023-09-06T01:24:53.283Z,16.14
2023-09-06T01:27:23.502Z,16.12
2023-09-06T01:29:53.266Z,16.17
2023-09-06T01:32:23.237Z,16.12
2023-09-06T01:34:54.295Z,16.14
2023-09-06T01:37:23.790Z,16.13
2023-09-06T01:39:55.742Z,16.15
2023-09-06T01:42:25.786Z,16.06
2023-09-06T01:44:55.287Z,15.92
2023-09-06T01:47:25.826Z,15.88
2023-09-06T01:49:54.711Z,15.88
2023-09-06T01:52:25.237Z,15.93
2023-09-06T01:54:58.334Z,15.89
2023-09-06T01:57:27.334Z,15.89
2023-09-06T01:59:56.890Z,15.93
2023-09-06T02:02:26.997Z,15.88
2023-09-06T02:04:58.256Z,15.87
2023-09-06T02:07:27.805Z,15.81
2023-09-06T02:09:59.252Z,15.85
2023-09-06T02:12:29.964Z,15.83
2023-09-06T02:14:59.067Z,15.81
2023-09-06T02:17:28.042Z,15.79
2023-09-06T02:19:58.087Z,15.77
2023-09-06T02:22:28.568Z,15.71
2023-09-06T02:25:01.136Z,15.73
2023-09-06T02:27:33.523Z,15.64
2023-09-06T02:30:03.406Z,15.62
2023-09-06T02:32:33.430Z,15.50
2023-09-06T02:35:03.131Z,15.41
2023-09-06T02:37:33.190Z,15.42
2023-09-06T02:40:08.023Z,15.48
2023-09-06T02:42:39.949Z,15.45
2023-09-06T02:45:12.265Z,15.47
2023-09-06T02:47:50.300Z,15.42
2023-09-06T02:50:24.825Z,15.41
2023-09-06T02:52:57.720Z,15.36
2023-09-06T02:55:28.536Z,15.40
2023-09-06T02:57:58.761Z,15.36
2023-09-06T03:00:30.977Z,15.28
2023-09-06T03:03:07.436Z,15.29
2023-09-06T03:05:43.430Z,15.33
2023-09-06T03:08:15.028Z,15.26
2023-09-06T03:10:46.396Z,15.23
2023-09-06T03:13:16.820Z,15.24
2023-09-06T03:15:47.598Z,15.24
2023-09-06T03:18:21.326Z,15.18
2023-09-06T03:20:56.874Z,15.22
2023-09-06T03:23:28.732Z,15.16
2023-09-06T03:26:00.705Z,15.18
2023-09-06T03:28:31.686Z,15.13
2023-09-06T03:31:02.028Z,15.12
2023-09-06T03:33:33.068Z,15.05
2023-09-06T03:36:08.799Z,15.01
2023-09-06T03:38:39.238Z,14.96
2023-09-06T03:41:11.698Z,15.00
2023-09-06T03:43:42.471Z,14.97
2023-09-06T03:46:14.341Z,14.97
2023-09-06T03:48:47.727Z,14.97
2023-09-06T03:51:19.148Z,14.93
2023-09-06T03:53:49.919Z,14.86
2023-09-06T03:56:21.379Z,14.85
2023-09-06T03:58:50.931Z,14.87
2023-09-06T04:01:20.586Z,14.74
2023-09-06T04:03:51.966Z,14.74
2023-09-06T04:06:21.698Z,14.76
2023-09-06T04:08:52.166Z,14.71
2023-09-06T04:11:24.784Z,14.76
2023-09-06T04:13:56.999Z,14.74
2023-09-06T04:16:28.594Z,14.69
2023-09-06T04:18:58.985Z,14.69
2023-09-06T04:21:29.596Z,14.69
2023-09-06T04:24:00.202Z,14.66
2023-09-06T04:26:31.825Z,14.64
2023-09-06T04:29:01.448Z,14.59
2023-09-06T04:31:33.980Z,14.49
2023-09-06T04:34:06.648Z,14.51
2023-09-06T04:36:41.181Z,14.51
2023-09-06T04:39:11.169Z,14.46
2023-09-06T04:41:45.050Z,14.44
2023-09-06T04:44:17.363Z,14.40
2023-09-06T04:46:47.804Z,14.38
2023-09-06T04:49:18.511Z,14.42
2023-09-06T04:51:54.529Z,14.47
2023-09-06T04:54:26.057Z,14.41
2023-09-06T04:57:07.263Z,14.35
2023-09-06T04:59:38.666Z,14.36
2023-09-06T05:02:10.347Z,14.36
2023-09-06T05:04:40.436Z,14.35
2023-09-06T05:07:10.938Z,14.33
2023-09-06T05:09:41.158Z,14.32
2023-09-06T05:12:12.433Z,14.33
2023-09-06T05:14:42.662Z,14.27
2023-09-06T05:17:14.605Z,14.24
2023-09-06T05:19:43.907Z,14.20
2023-09-06T05:22:13.113Z,14.23
2023-09-06T05:24:42.760Z,14.23
2023-09-06T05:27:19.367Z,14.30
2023-09-06T05:29:51.437Z,14.28
2023-09-06T05:32:21.504Z,14.22
2023-09-06T05:34:53.822Z,14.24
2023-09-06T05:37:25.735Z,14.23
2023-09-06T05:39:55.506Z,14.20
2023-09-06T05:42:26.578Z,14.19
2023-09-06T05:44:56.155Z,14.22
2023-09-06T05:47:25.904Z,14.20
2023-09-06T05:49:59.138Z,14.25
2023-09-06T05:52:29.803Z,14.26
2023-09-06T05:55:00.416Z,14.23
2023-09-06T05:57:31.245Z,14.25
2023-09-06T06:00:03.350Z,14.26
2023-09-06T06:02:34.148Z,14.28
2023-09-06T06:05:04.708Z,14.33
2023-09-06T06:07:35.795Z,14.39
2023-09-06T06:10:06.749Z,14.42
2023-09-06T06:12:40.260Z,14.47
2023-09-06T06:15:15.399Z,14.45
2023-09-06T06:17:47.121Z,14.50
2023-09-06T06:20:27.702Z,14.56
2023-09-06T06:23:01.116Z,14.55
2023-09-06T06:25:31.211Z,14.56
2023-09-06T06:28:03.898Z,14.56
2023-09-06T06:30:35.447Z,14.57
2023-09-06T06:33:08.737Z,14.56
2023-09-06T06:35:41.258Z,14.59
2023-09-06T06:38:16.063Z,14.65
2023-09-06T06:40:46.564Z,14.66
2023-09-06T06:43:18.712Z,14.70
2023-09-06T06:45:50.299Z,14.73
2023-09-06T06:48:21.218Z,14.76
2023-09-06T06:50:51.779Z,14.81
2023-09-06T06:53:23.337Z,14.86
2023-09-06T06:55:55.565Z,14.86
2023-09-06T06:58:28.223Z,14.91
2023-09-06T07:00:58.280Z,14.94
2023-09-06T07:03:28.510Z,14.98
2023-09-06T07:05:59.500Z,15.02
2023-09-06T07:08:31.363Z,15.05
2023-09-06T07:11:01.170Z,15.10
2023-09-06T07:13:32.836Z,15.16
2023-09-06T07:16:02.549Z,15.21
2023-09-06T07:18:32.951Z,15.25
2023-09-06T07:21:03.196Z,15.28
2023-09-06T07:23:34.293Z,15.31
2023-09-06T07:26:03.503Z,15.38
2023-09-06T07:28:41.334Z,15.42
2023-09-06T07:31:10.505Z,15.48
2023-09-06T07:33:40.464Z,15.53
2023-09-06T07:36:12.867Z,15.55
2023-09-06T07:38:42.487Z,15.62
2023-09-06T07:41:13.199Z,15.64
2023-09-06T07:43:45.232Z,15.73
2023-09-06T07:46:15.519Z,15.80
2023-09-06T07:48:46.278Z,19.41
2023-09-06T07:51:15.923Z,18.40
2023-09-06T07:53:47.088Z,17.98
2023-09-06T07:56:16.125Z,17.76
2023-09-06T07:58:47.576Z,17.60
2023-09-06T08:01:19.515Z,17.50
2023-09-06T08:03:49.352Z,17.46
2023-09-06T08:06:18.767Z,17.43
2023-09-06T08:08:48.470Z,17.42
2023-09-06T08:11:20.057Z,17.40
2023-09-06T08:13:51.085Z,17.41
2023-09-06T08:16:22.132Z,17.43
2023-09-06T08:18:51.524Z,17.45
2023-09-06T08:21:22.494Z,17.47
2023-09-06T08:23:53.144Z,17.49
2023-09-06T08:26:22.265Z,17.53
2023-09-06T08:28:54.456Z,17.56
2023-09-06T08:31:24.065Z,17.58
2023-09-06T08:33:53.947Z,17.62
2023-09-06T08:36:24.315Z,17.63
2023-09-06T08:38:53.868Z,17.66
2023-09-06T08:41:23.664Z,17.71
2023-09-06T08:43:56.370Z,17.75
2023-09-06T08:46:31.938Z,17.78
2023-09-06T08:49:05.928Z,17.83
2023-09-06T08:51:37.558Z,17.87
2023-09-06T08:54:11.004Z,17.92
2023-09-06T08:56:39.507Z,17.97
2023-09-06T08:59:11.774Z,18.01
2023-09-06T09:01:40.948Z,18.05
2023-09-06T09:04:10.827Z,18.10
2023-09-06T09:06:44.709Z,18.16
2023-09-06T09:09:18.471Z,18.20
2023-09-06T09:11:51.350Z,18.23
2023-09-06T09:14:23.876Z,18.31
2023-09-06T09:16:58.075Z,18.36
2023-09-06T09:19:28.754Z,18.40
2023-09-06T09:21:58.551Z,18.47
2023-09-06T09:24:30.653Z,18.55
2023-09-06T09:27:00.252Z,18.68
2023-09-06T09:29:31.671Z,18.74
2023-09-06T09:32:06.038Z,18.81
2023-09-06T09:34:36.233Z,18.88
2023-09-06T09:37:07.147Z,18.97
2023-09-06T09:39:36.858Z,19.07
2023-09-06T09:42:11.294Z,19.14
2023-09-06T09:44:42.815Z,19.25
2023-09-06T09:47:43.246Z,19.30
2023-09-06T09:50:09.045Z,19.44
2023-09-06T09:52:40.457Z,19.61
2023-09-06T09:55:13.173Z,19.69
2023-09-06T09:57:45.535Z,19.74
2023-09-06T10:00:28.899Z,19.75
2023-09-06T10:03:00.962Z,19.84
2023-09-06T10:05:33.773Z,19.98
2023-09-06T10:08:07.346Z,20.03
2023-09-06T10:10:40.954Z,20.06
2023-09-06T10:13:11.752Z,20.09
2023-09-06T10:15:44.420Z,20.21
2023-09-06T10:18:14.357Z,20.26
2023-09-06T10:20:44.074Z,20.30
2023-09-06T10:23:13.974Z,20.35
2023-09-06T10:25:45.317Z,20.38
2023-09-06T10:28:17.817Z,20.43
2023-09-06T10:31:03.720Z,20.49
2023-09-06T10:34:16.753Z,20.59
2023-09-06T10:36:54.872Z,20.61
2023-09-06T10:39:27.714Z,20.74
2023-09-06T10:42:31.749Z,20.83
2023-09-06T10:45:14.823Z,20.91
2023-09-06T10:47:46.485Z,20.93
2023-09-06T10:50:21.289Z,20.94
2023-09-06T10:52:55.997Z,20.97
2023-09-06T10:55:29.814Z,21.00
2023-09-06T10:58:09.450Z,21.10
2023-09-06T11:00:40.713Z,21.14
2023-09-06T11:03:23.581Z,21.22
2023-09-06T11:06:00.233Z,21.29
2023-09-06T11:08:33.101Z,21.33
2023-09-06T11:11:27.061Z,21.36
2023-09-06T11:13:59.264Z,21.40
2023-09-06T11:16:29.319Z,21.46
2023-09-06T11:19:00.246Z,21.60
2023-09-06T11:21:30.303Z,21.77
2023-09-06T11:24:01.021Z,21.84
2023-09-06T11:26:37.753Z,21.87
2023-09-06T11:29:07.377Z,21.93
2023-09-06T11:31:37.110Z,21.94
2023-09-06T11:34:12.654Z,21.97
2023-09-06T11:36:43.950Z,22.00
2023-09-06T11:39:20.133Z,22.03
2023-09-06T11:41:50.314Z,22.06
2023-09-06T11:44:20.717Z,22.09
2023-09-06T11:46:51.403Z,22.12
2023-09-06T11:49:25.286Z,22.15
2023-09-06T11:51:55.476Z,22.21
2023-09-06T11:54:28.816Z,22.22
2023-09-06T11:56:59.527Z,22.23
2023-09-06T11:59:34.081Z,22.26
2023-09-06T12:02:07.249Z,22.28
2023-09-06T12:04:39.207Z,22.31
2023-09-06T12:07:09.861Z,22.35
2023-09-06T12:09:40.249Z,22.37
2023-09-06T12:12:09.769Z,22.43
2023-09-06T12:14:39.225Z,22.53
2023-09-06T12:17:09.509Z,22.57
2023-09-06T12:19:40.116Z,22.59
2023-09-06T12:22:11.559Z,22.69
2023-09-06T12:24:42.122Z,22.72
2023-09-06T12:27:12.962Z,22.75
2023-09-06T12:29:43.170Z,22.79
2023-09-06T12:32:13.256Z,23.01
2023-09-06T12:34:44.069Z,23.09
2023-09-06T12:37:13.396Z,23.09
2023-09-06T12:39:43.735Z,23.12
2023-09-06T12:42:13.347Z,23.17
2023-09-06T12:44:43.524Z,23.25
2023-09-06T12:47:12.758Z,23.29
2023-09-06T12:49:43.627Z,23.36
2023-09-06T12:52:17.266Z,23.44
2023-09-06T12:54:46.673Z,23.49
2023-09-06T12:57:18.527Z,23.52
2023-09-06T12:59:49.199Z,23.57
2023-09-06T13:02:19.118Z,23.65
2023-09-06T13:04:51.113Z,23.69
2023-09-06T13:07:21.272Z,23.72
2023-09-06T13:09:50.580Z,23.82
2023-09-06T13:12:19.519Z,23.87
2023-09-06T13:14:48.471Z,23.94
2023-09-06T13:17:17.960Z,24.01
2023-09-06T13:19:46.837Z,24.08
2023-09-06T13:22:18.230Z,24.17
2023-09-06T13:24:47.193Z,24.22
2023-09-06T13:27:17.082Z,24.24
2023-09-06T13:29:46.618Z,24.25
2023-09-06T13:32:16.185Z,24.29
2023-09-06T13:34:47.587Z,24.33
2023-09-06T13:37:20.206Z,24.37
2023-09-06T13:39:51.358Z,24.46
2023-09-06T13:42:21.064Z,24.56
2023-09-06T13:44:51.611Z,24.89
2023-09-06T13:47:21.243Z,25.50
2023-09-06T13:49:52.308Z,26.09
2023-09-06T13:52:23.604Z,26.63
2023-09-06T13:54:53.689Z,27.05
2023-09-06T13:57:25.720Z,27.31
2023-09-06T13:59:56.738Z,27.46
2023-09-06T14:02:27.826Z,27.50
2023-09-06T14:04:58.956Z,27.52
2023-09-06T14:07:30.754Z,27.56
2023-09-06T14:10:01.537Z,27.60
2023-09-06T14:12:32.060Z,27.58
2023-09-06T14:15:02.636Z,27.57
2023-09-06T14:17:32.953Z,27.55
2023-09-06T14:20:01.323Z,27.56
2023-09-06T14:22:31.759Z,27.61
2023-09-06T14:25:00.681Z,27.62
2023-09-06T14:27:29.356Z,27.61
2023-09-06T14:30:01.355Z,27.58
2023-09-06T14:32:30.915Z,27.56
2023-09-06T14:35:01.256Z,27.62
2023-09-06T14:37:32.722Z,27.65
2023-09-06T14:40:02.502Z,27.65
2023-09-06T14:42:34.305Z,27.66
2023-09-06T14:45:03.851Z,27.66
2023-09-06T14:47:33.922Z,27.75
2023-09-06T14:50:04.011Z,27.77
2023-09-06T14:52:34.472Z,27.80
2023-09-06T14:55:04.206Z,27.77
2023-09-06T14:57:33.673Z,27.80
2023-09-06T15:00:05.431Z,27.77
2023-09-06T15:02:36.180Z,27.81
2023-09-06T15:05:05.985Z,27.83
2023-09-06T15:07:36.077Z,27.87
2023-09-06T15:10:07.880Z,27.99
2023-09-06T15:12:37.362Z,28.06
2023-09-06T15:15:08.853Z,28.05
2023-09-06T15:17:38.934Z,28.02
2023-09-06T15:20:12.285Z,28.05
2023-09-06T15:22:42.888Z,28.09
2023-09-06T15:25:13.918Z,28.08
2023-09-06T15:27:43.651Z,28.07
2023-09-06T15:30:13.001Z,28.11
2023-09-06T15:32:44.144Z,28.05
2023-09-06T15:35:15.016Z,28.10
2023-09-06T15:38:01.578Z,28.08
2023-09-06T15:40:31.182Z,28.15
2023-09-06T15:43:01.305Z,28.06
2023-09-06T15:45:30.908Z,28.11
2023-09-06T15:48:01.750Z,28.15
2023-09-06T15:50:31.827Z,28.15
2023-09-06T15:53:02.150Z,28.13
2023-09-06T15:55:33.709Z,27.98
2023-09-06T15:58:05.068Z,27.91
2023-09-06T16:00:33.606Z,27.86
2023-09-06T16:03:03.604Z,27.81
2023-09-06T16:05:32.831Z,27.75
2023-09-06T16:08:04.572Z,27.65
2023-09-06T16:10:34.460Z,27.64
2023-09-06T16:13:04.201Z,27.59
2023-09-06T16:15:34.022Z,27.47
2023-09-06T16:18:02.979Z,27.44
2023-09-06T16:20:33.833Z,27.42
2023-09-06T16:23:05.700Z,27.37
2023-09-06T16:25:37.393Z,27.29
2023-09-06T16:28:07.956Z,27.22
2023-09-06T16:30:43.232Z,27.18
2023-09-06T16:33:13.830Z,27.18
2023-09-06T16:35:43.338Z,27.13
2023-09-06T16:38:14.217Z,27.08
2023-09-06T16:40:44.026Z,27.05
2023-09-06T16:43:13.931Z,27.00
2023-09-06T16:45:42.696Z,26.90
2023-09-06T16:48:12.101Z,26.84
2023-09-06T16:50:43.536Z,26.76
2023-09-06T16:53:14.521Z,26.67
2023-09-06T16:55:44.630Z,26.62
2023-09-06T16:58:14.411Z,26.53
2023-09-06T17:00:44.234Z,26.41
2023-09-06T17:03:14.792Z,26.30
2023-09-06T17:05:43.415Z,26.18
2023-09-06T17:08:13.960Z,26.11
2023-09-06T17:10:42.393Z,26.00
2023-09-06T17:13:12.314Z,25.96
2023-09-06T17:15:42.976Z,25.85
2023-09-06T17:18:13.664Z,25.78
2023-09-06T17:20:43.824Z,25.68
2023-09-06T17:23:17.309Z,25.53
2023-09-06T17:25:51.051Z,25.42
2023-09-06T17:28:21.198Z,25.33
2023-09-06T17:30:52.891Z,25.23
2023-09-06T17:33:25.512Z,25.15
2023-09-06T17:35:55.055Z,25.00
2023-09-06T17:38:25.992Z,24.81
2023-09-06T17:40:55.138Z,24.67
2023-09-06T17:43:26.659Z,24.50
2023-09-06T17:46:00.041Z,24.37
2023-09-06T17:48:30.657Z,24.26
2023-09-06T17:51:08.779Z,24.12
2023-09-06T17:53:41.764Z,24.02
2023-09-06T17:56:14.344Z,23.93
2023-09-06T17:58:45.060Z,23.88
2023-09-06T18:01:16.173Z,23.81
2023-09-06T18:03:53.626Z,23.74
2023-09-06T18:06:26.231Z,23.69
2023-09-06T18:08:59.037Z,23.67
2023-09-06T18:11:27.780Z,23.55
2023-09-06T18:13:56.847Z,23.50
2023-09-06T18:16:26.579Z,23.35
2023-09-06T18:18:56.079Z,23.28
2023-09-06T18:21:27.031Z,23.18
2023-09-06T18:24:04.385Z,23.10
2023-09-06T18:26:33.778Z,22.95
2023-09-06T18:29:03.447Z,22.88
2023-09-06T18:31:33.506Z,22.82
2023-09-06T18:34:03.006Z,22.75
2023-09-06T18:36:33.469Z,22.65
2023-09-06T18:39:04.193Z,22.49
2023-09-06T18:41:33.620Z,22.46
2023-09-06T18:44:02.641Z,22.43
2023-09-06T18:46:33.648Z,22.34
2023-09-06T18:49:08.212Z,22.29
2023-09-06T18:51:38.577Z,22.22
2023-09-06T18:54:08.902Z,22.07
2023-09-06T18:56:37.311Z,21.99
2023-09-06T18:59:08.741Z,21.96
2023-09-06T19:01:37.926Z,21.85
2023-09-06T19:04:07.612Z,21.77
2023-09-06T19:06:37.225Z,21.71
2023-09-06T19:09:09.586Z,21.68
2023-09-06T19:11:39.742Z,21.59
2023-09-06T19:14:10.104Z,21.52
2023-09-06T19:16:40.227Z,21.39
2023-09-06T19:19:08.792Z,21.34
2023-09-06T19:21:37.335Z,21.26
2023-09-06T19:24:08.414Z,21.21
2023-09-06T19:26:37.368Z,21.14
2023-09-06T19:29:07.683Z,21.04
2023-09-06T19:31:36.700Z,21.05
2023-09-06T19:34:06.187Z,20.95
2023-09-06T19:36:36.405Z,20.92
2023-09-06T19:39:05.989Z,20.85
2023-09-06T19:41:37.358Z,20.72
2023-09-06T19:44:08.364Z,20.71
2023-09-06T19:46:38.028Z,20.67
2023-09-06T19:49:07.867Z,20.60
2023-09-06T19:51:40.570Z,20.46
2023-09-06T19:54:10.458Z,20.34
2023-09-06T19:56:41.881Z,20.40
2023-09-06T19:59:10.994Z,20.38
2023-09-06T20:01:41.098Z,20.34
2023-09-06T20:04:10.835Z,20.29
2023-09-06T20:06:40.291Z,20.13
2023-09-06T20:09:10.779Z,20.11
2023-09-06T20:11:41.996Z,20.14
2023-09-06T20:14:13.479Z,20.08
2023-09-06T20:16:42.737Z,19.99
2023-09-06T20:19:12.794Z,19.86
2023-09-06T20:21:43.333Z,19.84
2023-09-06T20:24:12.413Z,19.80
2023-09-06T20:26:43.438Z,19.73
2023-09-06T20:29:13.015Z,19.65
2023-09-06T20:31:44.289Z,19.55
2023-09-06T20:34:14.493Z,19.45
2023-09-06T20:36:45.621Z,19.47
2023-09-06T20:39:15.173Z,19.39
2023-09-06T20:41:47.941Z,19.44
2023-09-06T20:44:17.494Z,19.34
2023-09-06T20:46:47.196Z,19.30
2023-09-06T20:49:18.365Z,19.33
2023-09-06T20:51:49.891Z,19.23
2023-09-06T20:54:19.338Z,19.27
2023-09-06T20:56:50.777Z,19.20
2023-09-06T20:59:20.436Z,19.17
2023-09-06T21:01:49.954Z,19.10
2023-09-06T21:04:19.613Z,18.99
2023-09-06T21:06:50.071Z,19.00
2023-09-06T21:09:20.715Z,18.85
2023-09-06T21:11:52.546Z,18.83
2023-09-06T21:14:21.003Z,18.78
2023-09-06T21:16:50.871Z,18.73
2023-09-06T21:19:20.766Z,18.76
2023-09-06T21:21:49.828Z,18.69
2023-09-06T21:24:20.002Z,18.55
2023-09-06T21:26:51.617Z,18.49
2023-09-06T21:29:27.951Z,18.58
2023-09-06T21:31:58.293Z,18.52
2023-09-06T21:34:28.595Z,18.45
2023-09-06T21:36:57.797Z,18.43
2023-09-06T21:39:27.739Z,18.45
2023-09-06T21:41:59.401Z,18.47
2023-09-06T21:44:29.508Z,18.39
2023-09-06T21:46:58.511Z,18.36
2023-09-06T21:49:29.401Z,18.35
2023-09-06T21:52:00.488Z,18.33
2023-09-06T21:54:30.029Z,18.32
2023-09-06T21:57:01.625Z,18.28
2023-09-06T21:59:31.361Z,18.24
2023-09-06T22:02:01.507Z,18.20
2023-09-06T22:04:31.247Z,18.20
2023-09-06T22:07:01.435Z,18.14
2023-09-06T22:09:31.461Z,18.08
2023-09-06T22:12:01.607Z,18.06
2023-09-06T22:14:31.812Z,18.04
2023-09-06T22:17:01.838Z,18.03
2023-09-06T22:19:32.721Z,18.02
2023-09-06T22:22:03.489Z,17.91
2023-09-06T22:24:33.184Z,17.84
2023-09-06T22:27:04.791Z,17.91
2023-09-06T22:29:33.877Z,17.88
2023-09-06T22:32:04.034Z,17.82
2023-09-06T22:34:36.288Z,17.83
2023-09-06T22:37:06.694Z,17.82
2023-09-06T22:39:36.348Z,17.82
2023-09-06T22:42:09.952Z,17.81
2023-09-06T22:44:39.983Z,17.84
2023-09-06T22:47:10.794Z,17.79
2023-09-06T22:49:42.149Z,17.78
2023-09-06T22:52:12.507Z,17.76
2023-09-06T22:54:43.365Z,17.62
2023-09-06T22:57:15.724Z,17.58
2023-09-06T22:59:45.641Z,17.55
2023-09-06T23:02:14.670Z,17.48
2023-09-06T23:04:45.013Z,17.39
2023-09-06T23:07:14.810Z,17.43
2023-09-06T23:09:46.116Z,17.36
2023-09-06T23:12:17.498Z,17.38
2023-09-06T23:14:49.977Z,17.35
2023-09-06T23:17:24.968Z,17.25
2023-09-06T23:19:56.127Z,17.19
2023-09-06T23:22:26.369Z,17.14
2023-09-06T23:24:58.720Z,17.11
2023-09-06T23:27:31.609Z,17.15
2023-09-06T23:30:09.592Z,17.16
2023-09-06T23:32:41.035Z,17.17
2023-09-06T23:35:12.203Z,17.12
2023-09-06T23:37:42.191Z,17.15
2023-09-06T23:40:21.642Z,17.14
2023-09-06T23:42:55.250Z,17.06
2023-09-06T23:45:25.420Z,16.97
2023-09-06T23:48:00.693Z,16.92
2023-09-06T23:50:32.637Z,16.85
2023-09-06T23:53:02.146Z,16.88
2023-09-06T23:55:33.410Z,16.80
2023-09-06T23:58:05.473Z,16.81
